Time;durP1;ratioP1;P1;durP2;ratioP2;P2;SDS_P1;SDS_P2;PMS_P1;PMS_P2;Temp;Humidity;BMP_temperature;BMP_pressure;BME280_temperature;BME280_humidity;BME280_pressure;Samples;Min_cycle;Max_cycle;Signal;HPM_P1;HPM_P2
2022/05/25 04:01:06;;;;;;;3.13;1.10;;;15.40;99.90;;;;;;5667940;23;20597;-63
2022/05/25 04:03:33;;;;;;;1.40;1.30;;;15.40;99.90;;;;;;4994277;28;20457;-64
2022/05/25 04:05:59;;;;;;;1.07;1.00;;;15.40;99.90;;;;;;4993957;28;20999;-64
2022/05/25 04:08:26;;;;;;;1.20;1.20;;;15.40;99.90;;;;;;4994221;28;20476;-64
2022/05/25 04:10:53;;;;;;;1.20;1.20;;;15.30;99.90;;;;;;4994106;28;20496;-65
2022/05/25 04:13:21;;;;;;;3.20;1.10;;;15.40;99.90;;;;;;4993933;28;20820;-64
2022/05/25 04:15:47;;;;;;;1.40;1.40;;;15.40;99.90;;;;;;4994302;28;20453;-64
2022/05/25 04:18:16;;;;;;;1.53;1.23;;;15.40;99.90;;;;;;4994462;28;20864;-64
2022/05/25 04:20:42;;;;;;;1.20;1.20;;;15.40;99.90;;;;;;4994056;28;20473;-64
2022/05/25 04:23:11;;;;;;;2.53;1.10;;;15.30;99.90;;;;;;4994082;28;20462;-65
2022/05/25 04:25:39;;;;;;;1.30;1.20;;;15.30;99.90;;;;;;4994548;28;20504;-65
2022/05/25 04:28:06;;;;;;;1.30;1.20;;;15.30;99.90;;;;;;4998150;28;20453;-64
2022/05/25 04:30:34;;;;;;;2.47;1.20;;;15.30;99.90;;;;;;4997798;28;20489;-65
2022/05/25 04:33:01;;;;;;;1.30;1.20;;;15.30;99.90;;;;;;4998272;28;20454;-65
2022/05/25 04:35:29;;;;;;;4.10;1.00;;;15.30;99.90;;;;;;4997852;28;20464;-65
2022/05/25 04:37:56;;;;;;;1.33;1.17;;;15.30;99.90;;;;;;4997535;28;20839;-65
2022/05/25 04:40:26;;;;;;;1.83;1.23;;;15.30;99.90;;;;;;4997571;28;20460;-65
2022/05/25 04:42:54;;;;;;;1.27;1.20;;;15.30;99.90;;;;;;4998359;28;20450;-66
2022/05/25 04:45:21;;;;;;;3.63;1.33;;;15.30;99.90;;;;;;4997559;28;20457;-64
2022/05/25 04:47:49;;;;;;;1.00;1.00;;;15.30;99.90;;;;;;4997411;28;20454;-64
2022/05/25 04:50:17;;;;;;;4.57;1.20;;;15.40;99.90;;;;;;4997442;28;20484;-65
2022/05/25 04:52:45;;;;;;;1.93;1.40;;;15.40;99.90;;;;;;4997567;28;20460;-65
2022/05/25 04:57:19;;;;;;;1.33;1.10;;;15.50;99.90;;;;;;4996962;28;20511;-65
2022/05/25 04:57:59;;;;;;;1.10;1.10;;;15.50;99.90;;;;;;4996756;28;20462;-66
2022/05/25 05:00:27;;;;;;;1.47;1.10;;;15.60;99.90;;;;;;4996949;28;20450;-65
2022/05/25 05:02:53;;;;;;;0.90;0.90;;;15.60;99.90;;;;;;4996987;28;20967;-65
2022/05/25 05:05:20;;;;;;;1.20;1.10;;;15.60;99.90;;;;;;4997078;28;20821;-65
2022/05/25 05:07:49;;;;;;;1.60;1.20;;;15.70;99.90;;;;;;4997149;28;20458;-65
2022/05/25 05:10:15;;;;;;;2.00;1.40;;;15.70;99.90;;;;;;4996873;28;20457;-65
2022/05/25 05:12:42;;;;;;;1.00;1.00;;;15.70;99.90;;;;;;4997065;28;20462;-66
2022/05/25 05:15:11;;;;;;;1.37;1.27;;;15.70;99.90;;;;;;4997062;28;20457;-65
2022/05/25 05:17:37;;;;;;;2.30;1.33;;;15.80;99.90;;;;;;4996775;28;20458;-64
2022/05/25 05:20:05;;;;;;;3.63;1.10;;;15.80;99.90;;;;;;4996754;28;20457;-64
2022/05/25 05:22:32;;;;;;;1.70;1.60;;;15.80;99.90;;;;;;4996621;28;20473;-64
2022/05/25 05:25:00;;;;;;;4.57;1.33;;;15.80;99.90;;;;;;4996305;28;20960;-64
2022/05/25 05:27:27;;;;;;;2.33;1.50;;;15.80;99.90;;;;;;4996598;28;20454;-64
2022/05/25 05:29:54;;;;;;;1.77;1.43;;;15.80;99.90;;;;;;4996408;28;20484;-64
2022/05/25 05:32:21;;;;;;;2.50;1.10;;;15.90;99.90;;;;;;4996426;28;20561;-64
2022/05/25 05:34:47;;;;;;;3.27;1.00;;;16.00;99.90;;;;;;4996355;28;20458;-64
2022/05/25 05:37:17;;;;;;;2.83;1.33;;;16.00;99.90;;;;;;4995443;28;20457;-64
2022/05/25 05:39:48;;;;;;;2.20;1.13;;;16.10;99.90;;;;;;4996393;28;20442;-64
2022/05/25 05:42:19;;;;;;;1.40;1.30;;;16.20;99.90;;;;;;4996475;28;20481;-64
2022/05/25 05:44:48;;;;;;;2.77;1.20;;;16.30;99.90;;;;;;4996564;28;20442;-64
2022/05/25 05:47:19;;;;;;;4.50;1.10;;;16.40;99.90;;;;;;4995912;28;20860;-64
2022/05/25 05:49:46;;;;;;;1.17;0.97;;;16.50;99.90;;;;;;4996503;28;20446;-64
2022/05/25 05:52:13;;;;;;;2.33;1.40;;;16.60;99.90;;;;;;4996870;28;20493;-64
2022/05/25 05:54:40;;;;;;;1.73;1.13;;;16.60;99.90;;;;;;4996231;28;20462;-64
2022/05/25 05:57:07;;;;;;;1.93;1.23;;;16.60;99.90;;;;;;4996121;28;20449;-64
2022/05/25 05:59:35;;;;;;;1.03;1.03;;;16.70;99.90;;;;;;4995613;28;20454;-64
2022/05/25 06:02:02;;;;;;;1.20;1.20;;;16.80;99.90;;;;;;4995522;28;21015;-64
2022/05/25 06:04:28;;;;;;;1.50;1.00;;;16.90;99.90;;;;;;4995939;28;20458;-64
2022/05/25 06:06:55;;;;;;;2.70;1.30;;;17.00;99.90;;;;;;4995941;28;20504;-64
2022/05/25 06:09:22;;;;;;;1.93;1.20;;;17.00;99.90;;;;;;4995424;28;20457;-64
2022/05/25 06:11:49;;;;;;;2.60;1.50;;;17.10;99.90;;;;;;4995321;28;20984;-64
2022/05/25 06:14:15;;;;;;;5.33;1.13;;;17.20;99.90;;;;;;4995314;28;20937;-64
2022/05/25 06:19:29;;;;;;;2.20;1.50;;;17.70;99.90;;;;;;4995596;28;20426;-64
2022/05/25 06:21:58;;;;;;;2.40;1.07;;;17.90;99.90;;;;;;4996548;28;20537;-64
2022/05/25 06:24:25;;;;;;;1.40;1.30;;;18.10;99.90;;;;;;5001300;28;20454;-65
2022/05/25 06:26:51;;;;;;;2.87;1.40;;;18.30;99.90;;;;;;4995860;28;20465;-64
2022/05/25 06:29:19;;;;;;;1.97;1.07;;;18.60;99.90;;;;;;4995347;28;20462;-64
2022/05/25 06:31:47;;;;;;;1.07;1.07;;;18.90;99.90;;;;;;4995154;28;20563;-64
2022/05/25 06:34:14;;;;;;;2.00;1.10;;;19.30;99.90;;;;;;4994990;28;20941;-64
2022/05/25 06:36:41;;;;;;;3.70;1.07;;;19.70;99.90;;;;;;4995150;28;20457;-64
2022/05/25 06:39:08;;;;;;;1.87;1.10;;;20.10;99.90;;;;;;4995183;28;20489;-64
2022/05/25 06:41:35;;;;;;;2.30;1.23;;;20.40;99.90;;;;;;4995049;28;20564;-64
2022/05/25 06:44:02;;;;;;;1.33;1.00;;;20.60;99.90;;;;;;4995203;28;20454;-64
2022/05/25 06:46:29;;;;;;;1.27;1.17;;;20.90;99.90;;;;;;4995111;28;20457;-64
2022/05/25 06:48:58;;;;;;;1.33;1.03;;;21.20;99.90;;;;;;4995173;28;20821;-64
2022/05/25 06:51:27;;;;;;;1.93;1.27;;;21.50;97.60;;;;;;4994895;28;20513;-64
2022/05/25 06:53:54;;;;;;;2.00;1.30;;;21.90;97.90;;;;;;4995017;28;20500;-64
2022/05/25 06:56:22;;;;;;;1.97;1.10;;;22.00;94.80;;;;;;4994964;28;20484;-64
2022/05/25 06:58:49;;;;;;;1.73;1.40;;;22.00;94.70;;;;;;4994627;28;20484;-64
2022/05/25 07:01:16;;;;;;;1.30;1.20;;;22.00;95.20;;;;;;4994932;28;20972;-64
2022/05/25 07:03:43;;;;;;;2.10;1.20;;;22.00;95.30;;;;;;4994937;28;20468;-64
2022/05/25 07:06:12;;;;;;;1.50;1.40;;;22.00;94.20;;;;;;4994785;28;20454;-63
2022/05/25 07:08:39;;;;;;;4.13;1.50;;;22.10;94.80;;;;;;4995029;28;20458;-63
2022/05/25 07:11:06;;;;;;;1.70;1.60;;;22.50;95.00;;;;;;4994406;28;20477;-63
2022/05/25 07:13:33;;;;;;;1.40;1.20;;;23.00;93.50;;;;;;4994738;28;20454;-64
2022/05/25 07:16:02;;;;;;;2.37;1.20;;;23.30;93.30;;;;;;4994456;28;20800;-68
2022/05/25 07:18:29;;;;;;;2.30;1.00;;;23.80;92.70;;;;;;4994600;28;20488;-63
2022/05/25 07:20:59;;;;;;;8.80;2.13;;;23.90;89.00;;;;;;4994680;28;20496;-64
2022/05/25 07:23:28;;;;;;;1.60;1.10;;;24.20;89.20;;;;;;4994888;28;20446;-64
2022/05/25 07:25:54;;;;;;;2.50;1.20;;;24.40;83.30;;;;;;4994522;28;20536;-64
2022/05/25 07:28:21;;;;;;;2.60;1.10;;;24.60;83.00;;;;;;4994478;28;20457;-64
2022/05/25 07:30:50;;;;;;;1.20;1.10;;;24.80;82.90;;;;;;4994005;28;20478;-64
2022/05/25 07:33:17;;;;;;;1.80;1.10;;;25.20;79.10;;;;;;4994551;28;20458;-64
2022/05/25 07:35:44;;;;;;;1.53;1.20;;;25.70;77.80;;;;;;4994495;28;20464;-64
2022/05/25 07:38:11;;;;;;;2.97;1.73;;;26.20;72.50;;;;;;4994134;28;20964;-64
2022/05/25 07:40:42;;;;;;;2.47;0.80;;;26.60;70.90;;;;;;4994160;28;20473;-64
2022/05/25 07:43:13;;;;;;;1.57;1.00;;;26.80;67.70;;;;;;4994228;28;20441;-64
2022/05/25 07:45:40;;;;;;;1.10;1.00;;;26.70;69.60;;;;;;4994463;28;20438;-64
2022/05/25 07:48:07;;;;;;;1.27;1.10;;;27.10;70.60;;;;;;4994340;28;20454;-64
2022/05/25 07:50:34;;;;;;;0.93;0.93;;;27.40;68.00;;;;;;4994295;28;20493;-64
2022/05/25 07:53:02;;;;;;;1.37;1.00;;;27.00;65.50;;;;;;4994179;28;20535;-64
2022/05/25 07:55:29;;;;;;;2.20;0.90;;;27.10;66.40;;;;;;4994186;28;20454;-64
2022/05/25 07:57:57;;;;;;;1.10;1.00;;;27.10;64.10;;;;;;4993872;28;20790;-64
2022/05/25 08:00:25;;;;;;;1.50;1.20;;;27.40;64.60;;;;;;4994019;28;20454;-64
2022/05/25 08:05:46;;;;;;;1.80;1.00;;;27.80;61.60;;;;;;4998166;28;20422;-64
2022/05/25 08:08:16;;;;;;;2.33;1.60;;;28.40;61.60;;;;;;4998094;28;20438;-64
2022/05/25 08:10:43;;;;;;;1.50;1.10;;;28.60;59.20;;;;;;4997975;28;20489;-64
2022/05/25 08:13:15;;;;;;;1.00;1.00;;;28.70;60.10;;;;;;4998747;28;20501;-64
2022/05/25 08:15:43;;;;;;;4.33;1.03;;;28.90;59.70;;;;;;4997739;28;20441;-64
2022/05/25 08:18:10;;;;;;;1.80;1.17;;;28.90;57.20;;;;;;4997876;28;20541;-64
2022/05/25 08:20:37;;;;;;;1.77;1.10;;;28.70;59.60;;;;;;4997500;28;20512;-64
2022/05/25 08:23:05;;;;;;;1.23;1.07;;;29.10;56.80;;;;;;4997741;28;20450;-64
2022/05/25 08:25:32;;;;;;;1.43;1.27;;;29.50;55.20;;;;;;4997586;28;20461;-64
2022/05/25 08:27:59;;;;;;;1.20;1.10;;;29.70;55.60;;;;;;4997618;28;20453;-64
2022/05/25 08:30:27;;;;;;;3.10;1.20;;;29.40;57.70;;;;;;4997532;28;20458;-64
2022/05/25 08:32:55;;;;;;;2.30;1.23;;;29.60;57.50;;;;;;4997283;28;20500;-64
2022/05/25 08:35:22;;;;;;;1.70;1.13;;;29.20;57.70;;;;;;4997203;28;20875;-64
2022/05/25 08:37:49;;;;;;;1.57;0.90;;;29.00;58.60;;;;;;4997239;28;20454;-64
2022/05/25 08:40:18;;;;;;;3.20;1.30;;;28.90;57.60;;;;;;4997378;28;20457;-64
2022/05/25 08:42:51;;;;;;;1.40;1.30;;;28.60;55.50;;;;;;4997369;28;20486;-64
2022/05/25 08:45:19;;;;;;;1.50;1.03;;;28.30;56.20;;;;;;4997101;28;20901;-64
2022/05/25 08:47:51;;;;;;;4.57;1.20;;;27.70;55.90;;;;;;4997448;28;20461;-65
2022/05/25 08:50:18;;;;;;;3.67;0.90;;;27.30;57.10;;;;;;4998087;28;20820;-64
2022/05/25 08:52:47;;;;;;;0.80;0.80;;;26.80;59.80;;;;;;4997155;28;20999;-64
2022/05/25 08:55:27;;;;;;;1.90;1.50;;;26.20;59.40;;;;;;4997086;28;20825;-65
2022/05/25 08:57:57;;;;;;;2.37;1.13;;;26.00;59.10;;;;;;4997187;28;20473;-65
2022/05/25 09:00:24;;;;;;;1.67;1.17;;;25.70;62.10;;;;;;4997281;28;20454;-64
2022/05/25 09:02:59;;;;;;;1.37;1.20;;;25.90;60.70;;;;;;4997064;28;20439;-64
2022/05/25 09:05:34;;;;;;;1.87;1.13;;;26.50;63.40;;;;;;4997107;28;20441;-64
2022/05/25 09:08:06;;;;;;;6.20;0.93;;;27.20;60.40;;;;;;4996862;28;20445;-65
2022/05/25 09:10:42;;;;;;;1.47;1.00;;;27.30;59.00;;;;;;4996895;28;20478;-65
2022/05/25 09:13:15;;;;;;;2.40;1.20;;;27.20;57.80;;;;;;4995208;28;21035;-65
2022/05/25 09:18:42;;;;;;;2.33;1.20;;;27.70;57.70;;;;;;4996184;28;20516;-64
2022/05/25 09:21:09;;;;;;;1.37;1.00;;;28.10;57.50;;;;;;4996706;28;20473;-64
2022/05/25 09:23:37;;;;;;;1.33;1.23;;;28.40;55.10;;;;;;4996447;28;20980;-64
2022/05/25 09:26:04;;;;;;;2.43;1.10;;;28.40;54.90;;;;;;4996537;28;20945;-65
2022/05/25 09:28:35;;;;;;;4.30;1.10;;;28.90;57.40;;;;;;4996584;28;20450;-65
2022/05/25 09:31:03;;;;;;;28.50;7.87;;;29.30;55.80;;;;;;4996446;28;20548;-65
2022/05/25 09:33:36;;;;;;;3.93;1.20;;;29.90;54.10;;;;;;4996319;28;20508;-65
2022/05/25 09:36:08;;;;;;;1.43;0.77;;;30.40;53.20;;;;;;4996546;28;20470;-65
2022/05/25 09:38:45;;;;;;;1.20;1.00;;;30.70;50.60;;;;;;4996552;28;20441;-65
2022/05/25 09:41:14;;;;;;;1.20;1.10;;;30.10;49.40;;;;;;4995897;28;20839;-65
2022/05/25 09:43:43;;;;;;;1.30;1.20;;;29.60;51.00;;;;;;4996323;28;20449;-65
2022/05/25 09:46:17;;;;;;;4.57;1.73;;;29.10;53.10;;;;;;4996425;28;20544;-65
2022/05/25 09:48:51;;;;;;;1.90;0.83;;;28.70;53.20;;;;;;4996480;28;20446;-64
2022/05/25 09:51:27;;;;;;;1.47;0.60;;;28.10;53.10;;;;;;4996768;28;20484;-65
2022/05/25 09:54:00;;;;;;;1.40;0.97;;;27.70;54.60;;;;;;4996214;28;20430;-65
2022/05/25 09:56:31;;;;;;;1.30;0.73;;;27.80;55.80;;;;;;5002391;28;20898;-65
2022/05/25 09:59:02;;;;;;;2.43;1.30;;;27.80;54.80;;;;;;5009774;28;20445;-65
2022/05/25 10:01:32;;;;;;;1.23;1.00;;;28.50;54.80;;;;;;4996161;28;20524;-65
2022/05/25 10:04:02;;;;;;;1.30;0.90;;;29.30;52.50;;;;;;4996010;28;20442;-65
2022/05/25 10:06:35;;;;;;;1.17;1.07;;;29.60;51.70;;;;;;4995681;28;20495;-65
2022/05/25 10:09:11;;;;;;;2.30;1.00;;;30.10;50.10;;;;;;4996005;28;20448;-65
2022/05/25 10:11:45;;;;;;;2.50;1.00;;;30.60;50.20;;;;;;4995650;28;20532;-64
2022/05/25 10:14:34;;;;;;;0.77;0.60;;;30.00;51.70;;;;;;4995671;28;20445;-64
2022/05/25 10:17:07;;;;;;;1.43;1.10;;;30.30;52.60;;;;;;4995678;28;20446;-64
2022/05/25 10:19:46;;;;;;;1.10;1.00;;;30.50;50.00;;;;;;4995605;28;20496;-65
2022/05/25 10:22:29;;;;;;;0.73;0.60;;;30.60;48.50;;;;;;4995603;28;20469;-65
2022/05/25 10:25:01;;;;;;;2.77;0.83;;;31.00;48.40;;;;;;4995440;28;20449;-64
2022/05/25 10:27:38;;;;;;;0.80;0.60;;;31.20;46.90;;;;;;4995568;28;20481;-64
2022/05/25 10:39:18;;;;;;;1.83;1.43;;;32.20;49.40;;;;;;4993376;28;20449;-64
2022/05/25 10:41:58;;;;;;;2.00;1.90;;;32.20;47.60;;;;;;4995138;28;20484;-64
2022/05/25 10:44:27;;;;;;;1.13;0.80;;;32.00;46.70;;;;;;4995366;28;20554;-64
2022/05/25 10:46:57;;;;;;;5.30;1.30;;;31.50;46.50;;;;;;4994789;28;20446;-63
2022/05/25 10:49:30;;;;;;;1.23;1.10;;;30.80;48.00;;;;;;4995017;28;20544;-64
2022/05/25 10:52:02;;;;;;;2.10;0.73;;;30.10;47.60;;;;;;4994909;28;20474;-64
2022/05/25 10:54:47;;;;;;;0.83;0.77;;;30.20;52.60;;;;;;4995087;28;20793;-64
2022/05/25 10:57:47;;;;;;;1.07;1.00;;;30.60;52.50;;;;;;4994642;28;20862;-64
2022/05/25 11:00:17;;;;;;;2.53;0.90;;;30.90;46.20;;;;;;4988388;28;21003;-64
2022/05/25 11:03:13;;;;;;;1.00;0.90;;;31.00;46.10;;;;;;4995049;28;20466;-64
2022/05/25 11:05:49;;;;;;;1.10;0.90;;;31.20;45.10;;;;;;4994942;28;20517;-64
2022/05/25 11:08:39;;;;;;;2.27;0.97;;;30.20;46.00;;;;;;4994863;28;20438;-64
2022/05/25 11:11:16;;;;;;;1.90;1.20;;;29.80;50.90;;;;;;4995042;28;20508;-65
2022/05/25 11:14:00;;;;;;;2.20;0.90;;;29.90;49.50;;;;;;4994466;28;20461;-64
2022/05/25 11:16:37;;;;;;;1.77;0.90;;;30.00;49.10;;;;;;4994428;28;20906;-65
2022/05/25 11:19:37;;;;;;;3.03;1.27;;;29.70;50.10;;;;;;4994785;28;20445;-64
2022/05/25 11:22:20;;;;;;;0.70;0.70;;;29.50;50.20;;;;;;4968483;28;20477;-64
2022/05/25 11:25:03;;;;;;;1.77;1.00;;;29.20;50.00;;;;;;4994581;28;20433;-64
2022/05/25 11:27:49;;;;;;;0.80;0.80;;;28.80;52.90;;;;;;4994615;28;20434;-65
2022/05/25 11:30:19;;;;;;;1.40;1.03;;;28.60;51.00;;;;;;4994505;28;20438;-65
2022/05/25 11:33:03;;;;;;;1.07;0.70;;;28.40;52.20;;;;;;4994818;28;20477;-66
2022/05/25 11:35:45;;;;;;;0.87;0.87;;;28.20;52.60;;;;;;4993566;28;20927;-65
2022/05/25 11:38:21;;;;;;;1.20;0.73;;;27.70;51.00;;;;;;4994202;28;20918;-65
2022/05/25 11:40:59;;;;;;;1.20;0.90;;;27.70;52.00;;;;;;4994384;28;20588;-65
2022/05/25 11:43:59;;;;;;;2.20;0.90;;;27.50;52.30;;;;;;4994592;28;20444;-64
2022/05/25 11:46:39;;;;;;;0.80;0.80;;;27.10;51.30;;;;;;4995297;28;20453;-66
2022/05/25 11:49:32;;;;;;;0.60;0.60;;;26.70;55.80;;;;;;4994762;28;20440;-65
2022/05/25 11:52:12;;;;;;;1.60;0.80;;;26.70;51.80;;;;;;4994341;28;20482;-65
2022/05/25 11:54:51;;;;;;;1.50;0.93;;;26.70;53.10;;;;;;4994687;28;20441;-65
2022/05/25 11:57:27;;;;;;;0.63;0.63;;;26.90;51.50;;;;;;4994503;28;20445;-64
2022/05/25 12:00:14;;;;;;;0.80;0.80;;;27.00;54.20;;;;;;4994474;28;20438;-65
2022/05/25 12:03:29;;;;;;;0.93;0.80;;;27.00;53.60;;;;;;4994558;28;21008;-65
2022/05/25 12:06:07;;;;;;;1.40;0.80;;;27.20;53.80;;;;;;4915034;29;20847;-65
2022/05/25 12:08:55;;;;;;;1.60;0.70;;;27.30;53.90;;;;;;4991685;28;20454;-65
2022/05/25 12:11:31;;;;;;;1.03;0.70;;;27.20;50.80;;;;;;4993919;28;20477;-64
2022/05/25 12:14:17;;;;;;;1.43;1.00;;;27.10;51.70;;;;;;4994045;28;20487;-64
2022/05/25 12:16:45;;;;;;;0.77;0.70;;;27.20;53.40;;;;;;4993889;28;20913;-64
2022/05/25 12:19:17;;;;;;;0.70;0.70;;;27.30;49.70;;;;;;4994081;28;20450;-65
2022/05/25 12:21:49;;;;;;;1.27;0.60;;;27.10;49.80;;;;;;4993956;28;20481;-64
2022/05/25 12:24:19;;;;;;;3.93;0.97;;;27.00;52.70;;;;;;4996327;28;20453;-65
2022/05/25 12:26:47;;;;;;;1.23;0.70;;;27.00;54.60;;;;;;4995790;28;20442;-65
2022/05/25 12:29:21;;;;;;;1.87;1.00;;;27.00;51.60;;;;;;4995561;28;20461;-65
2022/05/25 12:31:52;;;;;;;0.80;0.70;;;27.00;51.70;;;;;;4993814;28;20980;-65
2022/05/25 12:34:26;;;;;;;0.70;0.70;;;27.00;51.40;;;;;;4994063;28;20466;-65
2022/05/25 12:36:53;;;;;;;3.93;1.13;;;27.00;52.70;;;;;;4993650;28;20438;-64
2022/05/25 12:39:57;;;;;;;1.13;1.03;;;26.90;52.60;;;;;;4993936;28;20500;-64
2022/05/25 12:42:33;;;;;;;4.17;0.77;;;27.10;53.00;;;;;;4993897;28;20476;-65
2022/05/25 12:50:51;;;;;;;1.13;0.80;;;27.60;52.00;;;;;;4997239;28;20540;-64
2022/05/25 12:53:25;;;;;;;0.93;0.83;;;27.70;49.80;;;;;;4996947;28;20556;-65
2022/05/25 12:55:56;;;;;;;2.63;0.90;;;27.60;49.90;;;;;;4997320;28;20445;-64
2022/05/25 12:58:37;;;;;;;5.20;1.43;;;27.20;49.40;;;;;;4997179;28;20462;-64
2022/05/25 13:01:26;;;;;;;2.87;0.90;;;26.90;53.50;;;;;;4996973;28;20544;-64
2022/05/25 13:04:39;;;;;;;3.33;0.83;;;27.00;52.30;;;;;;4996906;28;20516;-64
2022/05/25 13:07:28;;;;;;;1.90;0.93;;;27.30;54.00;;;;;;4990060;28;20453;-65
2022/05/25 13:09:55;;;;;;;3.50;0.80;;;27.40;53.30;;;;;;5008743;28;20827;-65
2022/05/25 13:12:46;;;;;;;2.07;0.80;;;27.60;52.80;;;;;;5012370;28;20469;-65
2022/05/25 13:15:45;;;;;;;1.30;1.20;;;27.40;52.10;;;;;;4998149;28;20449;-65
2022/05/25 13:18:45;;;;;;;1.03;0.80;;;27.20;53.10;;;;;;4996680;28;20945;-65
2022/05/25 13:21:33;;;;;;;1.03;0.70;;;27.20;54.00;;;;;;4996896;28;20485;-65
2022/05/25 13:24:33;;;;;;;1.17;0.90;;;27.00;54.00;;;;;;4996769;28;20508;-65
2022/05/25 13:27:38;;;;;;;1.83;1.10;;;26.90;54.10;;;;;;4996750;28;20477;-65
2022/05/25 13:30:18;;;;;;;0.90;0.90;;;27.00;51.50;;;;;;4967484;28;20496;-65
2022/05/25 13:32:51;;;;;;;0.70;0.70;;;26.90;52.70;;;;;;4996506;28;20441;-65
2022/05/25 13:35:40;;;;;;;1.57;0.80;;;26.90;50.20;;;;;;4996378;28;20928;-65
2022/05/25 13:38:21;;;;;;;0.87;0.73;;;26.90;52.30;;;;;;4996509;28;20442;-65
2022/05/25 13:40:52;;;;;;;4.20;1.17;;;27.00;51.50;;;;;;4996327;28;20556;-65
2022/05/25 13:43:22;;;;;;;1.33;1.07;;;27.00;53.00;;;;;;4996389;28;20438;-65
2022/05/25 13:45:51;;;;;;;2.97;0.70;;;26.90;52.60;;;;;;4996207;28;20969;-65
2022/05/25 13:48:22;;;;;;;1.47;1.00;;;26.80;51.80;;;;;;4996352;28;20458;-65
2022/05/25 13:50:56;;;;;;;2.40;1.10;;;26.90;54.50;;;;;;4996220;28;20509;-65
2022/05/25 13:53:33;;;;;;;2.77;1.23;;;26.90;53.80;;;;;;4996054;28;20466;-65
2022/05/25 13:56:03;;;;;;;3.23;0.80;;;26.80;53.80;;;;;;4996182;28;20442;-65
2022/05/25 13:58:30;;;;;;;0.83;0.80;;;26.80;54.50;;;;;;4995146;28;20833;-65
2022/05/25 14:00:57;;;;;;;1.23;0.80;;;26.60;53.00;;;;;;4995736;28;20488;-65
2022/05/25 14:03:28;;;;;;;1.30;1.13;;;26.50;53.30;;;;;;4995366;28;20454;-64
2022/05/25 14:06:00;;;;;;;3.03;0.90;;;26.30;53.10;;;;;;4995984;28;20461;-63
2022/05/25 14:11:17;;;;;;;2.30;0.80;;;26.30;53.00;;;;;;4994973;28;20454;-63
2022/05/25 14:13:44;;;;;;;1.97;0.90;;;26.30;53.50;;;;;;4995586;28;20462;-64
2022/05/25 14:16:16;;;;;;;1.60;0.70;;;26.10;53.80;;;;;;4995705;28;20448;-64
2022/05/25 14:18:46;;;;;;;2.80;0.70;;;26.00;53.90;;;;;;4995612;28;20449;-64
2022/05/25 14:21:31;;;;;;;1.30;0.87;;;26.10;54.20;;;;;;4996281;28;20473;-64
2022/05/25 14:23:59;;;;;;;0.70;0.70;;;26.30;53.60;;;;;;4995559;28;20909;-65
2022/05/25 14:26:29;;;;;;;1.27;1.10;;;26.30;54.30;;;;;;4995378;28;20450;-65
2022/05/25 14:28:58;;;;;;;1.70;1.30;;;26.30;52.00;;;;;;4995603;28;20457;-65
2022/05/25 14:31:25;;;;;;;1.03;0.60;;;26.50;52.70;;;;;;4996541;28;20478;-65
2022/05/25 14:34:03;;;;;;;2.20;0.60;;;26.60;53.30;;;;;;4997757;28;20996;-65
2022/05/25 14:36:33;;;;;;;1.00;0.80;;;26.40;52.40;;;;;;4997842;28;20441;-65
2022/05/25 14:39:00;;;;;;;1.30;1.00;;;26.00;52.50;;;;;;4998021;28;20458;-65
2022/05/25 14:41:29;;;;;;;2.00;0.83;;;25.80;54.10;;;;;;4997597;28;20889;-65
2022/05/25 14:43:57;;;;;;;0.70;0.70;;;25.70;54.60;;;;;;4996929;28;20504;-65
2022/05/25 14:46:28;;;;;;;1.13;0.80;;;25.60;54.70;;;;;;4995546;28;20462;-65
2022/05/25 14:48:58;;;;;;;2.07;0.60;;;25.50;54.50;;;;;;4995190;28;20441;-65
2022/05/25 14:51:27;;;;;;;2.87;1.07;;;25.40;54.40;;;;;;4994751;28;20522;-65
2022/05/25 14:54:09;;;;;;;0.80;0.80;;;25.30;55.20;;;;;;4994647;28;20842;-65
2022/05/25 14:56:36;;;;;;;1.13;0.97;;;25.40;55.60;;;;;;4994927;28;20446;-65
2022/05/25 14:59:03;;;;;;;1.70;0.67;;;25.40;54.60;;;;;;4994937;28;20453;-65
2022/05/25 15:01:33;;;;;;;2.17;0.80;;;25.40;53.70;;;;;;4994997;28;20485;-64
2022/05/25 15:04:06;;;;;;;3.87;1.03;;;25.40;54.60;;;;;;4994717;28;20450;-65
2022/05/25 15:06:56;;;;;;;0.97;0.77;;;25.50;55.10;;;;;;4994941;28;20438;-65
2022/05/25 15:09:28;;;;;;;1.37;0.70;;;25.40;55.90;;;;;;4995100;28;20434;-65
2022/05/25 15:12:23;;;;;;;1.00;0.90;;;25.20;54.90;;;;;;4994082;28;20473;-65
2022/05/25 15:18:33;;;;;;;1.83;0.90;;;24.90;55.90;;;;;;4994653;28;20951;-65
2022/05/25 15:21:03;;;;;;;1.73;0.90;;;24.80;56.30;;;;;;4994747;28;20532;-65
2022/05/25 15:23:34;;;;;;;1.30;0.60;;;24.70;56.30;;;;;;4994581;28;20828;-65
2022/05/25 15:26:17;;;;;;;2.20;2.07;;;24.70;54.70;;;;;;4994857;28;20446;-64
2022/05/25 15:28:45;;;;;;;1.13;0.83;;;24.70;56.10;;;;;;4994658;28;20466;-65
2022/05/25 15:31:14;;;;;;;0.77;0.77;;;24.70;56.50;;;;;;4994519;28;20557;-64
2022/05/25 15:33:44;;;;;;;1.20;1.10;;;24.70;55.90;;;;;;4994554;28;20869;-65
2022/05/25 15:36:15;;;;;;;1.27;1.10;;;24.70;56.20;;;;;;4994425;28;20860;-65
2022/05/25 15:38:42;;;;;;;1.60;1.20;;;24.70;56.00;;;;;;4994549;28;20811;-65
2022/05/25 15:41:09;;;;;;;3.90;1.00;;;24.70;55.70;;;;;;4994816;28;20477;-64
2022/05/25 15:43:39;;;;;;;0.70;0.70;;;24.60;55.80;;;;;;4997119;28;20954;-65
2022/05/25 15:46:09;;;;;;;3.60;1.47;;;24.50;56.80;;;;;;4996913;28;20798;-64
2022/05/25 15:48:36;;;;;;;1.60;0.87;;;24.30;56.40;;;;;;4994436;28;20453;-65
2022/05/25 15:51:03;;;;;;;1.60;1.03;;;24.20;55.70;;;;;;4994208;28;21039;-65
2022/05/25 15:53:30;;;;;;;1.13;0.80;;;23.90;56.20;;;;;;4995053;28;20451;-65
2022/05/25 15:55:58;;;;;;;1.87;1.00;;;23.80;55.10;;;;;;4994109;28;20812;-65
2022/05/25 15:58:26;;;;;;;1.10;1.10;;;23.70;56.70;;;;;;4994266;28;20461;-65
2022/05/25 16:00:55;;;;;;;1.07;0.97;;;23.90;56.80;;;;;;4993884;28;20526;-65
2022/05/25 16:03:25;;;;;;;1.80;1.20;;;23.90;58.20;;;;;;4993978;28;20438;-65
2022/05/25 16:05:56;;;;;;;1.13;0.90;;;24.10;56.80;;;;;;4994200;28;20464;-65
2022/05/25 16:11:08;;;;;;;1.43;1.17;;;24.10;56.80;;;;;;4994167;28;20456;-65
2022/05/25 16:13:34;;;;;;;0.70;0.70;;;24.10;57.90;;;;;;4994737;28;20469;-65
2022/05/25 16:16:02;;;;;;;0.90;0.77;;;23.90;56.90;;;;;;4993888;28;20457;-65
2022/05/25 16:18:29;;;;;;;1.00;0.83;;;23.70;56.40;;;;;;4993597;28;20457;-65
2022/05/25 16:20:56;;;;;;;1.60;1.33;;;23.60;57.20;;;;;;4993802;28;20838;-65
2022/05/25 16:23:22;;;;;;;1.57;0.70;;;23.60;57.50;;;;;;4997271;28;20512;-65
2022/05/25 16:25:49;;;;;;;1.43;0.73;;;23.70;58.40;;;;;;4997778;28;20453;-65
2022/05/25 16:28:16;;;;;;;2.80;1.20;;;23.70;57.80;;;;;;4997727;28;20461;-65
2022/05/25 16:30:42;;;;;;;2.63;1.43;;;23.70;57.70;;;;;;4997693;28;20488;-64
2022/05/25 16:33:10;;;;;;;1.90;1.10;;;23.60;57.90;;;;;;4997946;28;20453;-64
2022/05/25 16:35:38;;;;;;;1.87;0.87;;;23.60;58.60;;;;;;4997249;28;21001;-64
2022/05/25 16:38:04;;;;;;;0.90;0.90;;;23.60;57.90;;;;;;4998381;28;20851;-64
2022/05/25 16:40:31;;;;;;;2.63;0.90;;;23.60;58.40;;;;;;4997421;28;20453;-64
2022/05/25 16:42:58;;;;;;;1.80;0.93;;;23.50;58.30;;;;;;4997095;28;20458;-64
2022/05/25 16:45:26;;;;;;;1.90;0.90;;;23.40;58.60;;;;;;4997511;28;20458;-64
2022/05/25 16:47:52;;;;;;;1.23;1.13;;;23.40;58.20;;;;;;5001616;28;20485;-65
2022/05/25 16:50:21;;;;;;;1.90;1.10;;;23.20;58.60;;;;;;5004766;28;20454;-64
2022/05/25 16:52:47;;;;;;;1.40;0.73;;;23.20;59.70;;;;;;4997285;28;20508;-64
2022/05/25 16:55:15;;;;;;;1.60;1.10;;;23.10;59.20;;;;;;4997288;28;20804;-64
2022/05/25 16:57:42;;;;;;;1.37;0.97;;;23.00;58.80;;;;;;4996921;28;20541;-64
2022/05/25 17:00:13;;;;;;;1.30;1.00;;;22.90;59.50;;;;;;4997103;28;20457;-65
2022/05/25 17:02:41;;;;;;;1.33;0.80;;;22.80;59.20;;;;;;4996802;28;20924;-65
2022/05/25 17:05:10;;;;;;;3.80;1.00;;;22.60;58.70;;;;;;4997173;28;20449;-65
2022/05/25 17:07:38;;;;;;;5.20;0.97;;;22.50;59.70;;;;;;4997065;28;20453;-65
2022/05/25 17:10:06;;;;;;;1.30;0.90;;;22.40;59.60;;;;;;4996727;28;20968;-65
2022/05/25 17:12:33;;;;;;;1.67;0.93;;;22.40;60.20;;;;;;4996663;28;20473;-65
2022/05/25 17:15:00;;;;;;;1.00;0.97;;;22.30;59.50;;;;;;4996799;28;20489;-65
2022/05/25 17:17:27;;;;;;;2.07;0.80;;;22.30;59.60;;;;;;4996820;28;20512;-65
2022/05/25 17:22:39;;;;;;;0.90;0.90;;;22.30;61.00;;;;;;4996823;28;20532;-64
2022/05/25 17:25:06;;;;;;;0.93;0.90;;;22.20;60.70;;;;;;4996577;28;20454;-64
2022/05/25 17:27:34;;;;;;;1.37;0.83;;;22.20;60.60;;;;;;4996549;28;20453;-64
2022/05/25 17:30:00;;;;;;;1.60;1.00;;;22.10;59.90;;;;;;4997141;28;20461;-64
2022/05/25 17:32:28;;;;;;;1.90;0.90;;;22.00;60.40;;;;;;4996449;28;20466;-64
2022/05/25 17:34:55;;;;;;;2.93;1.00;;;21.80;60.80;;;;;;4995529;28;20478;-64
2022/05/25 17:42:54;;;;;;;1.00;1.00;;;21.50;61.90;;;;;;4996566;28;20915;-63
2022/05/25 17:45:21;;;;;;;1.70;1.00;;;21.50;62.00;;;;;;4996015;28;20934;-64
2022/05/25 17:47:48;;;;;;;1.33;0.90;;;21.40;62.20;;;;;;4996365;28;20465;-64
2022/05/25 17:50:15;;;;;;;1.53;0.83;;;21.30;62.40;;;;;;4996167;28;20454;-64
2022/05/25 17:52:43;;;;;;;0.80;0.70;;;21.20;62.50;;;;;;4996948;28;20485;-64